createdAt,value
2022-08-18T00:01:18.965Z,4.30
2022-08-18T00:03:53.037Z,5.72
2022-08-18T00:08:47.619Z,4.90
2022-08-18T00:11:15.918Z,6.10
2022-08-18T00:13:42.856Z,6.03
2022-08-18T00:16:09.659Z,4.75
2022-08-18T00:18:36.510Z,4.25
2022-08-18T00:21:03.419Z,7.25
2022-08-18T00:23:31.356Z,4.65
2022-08-18T00:25:59.490Z,6.38
2022-08-18T00:28:26.683Z,4.45
2022-08-18T00:30:54.008Z,5.13
2022-08-18T00:33:22.299Z,6.70
2022-08-18T00:35:49.659Z,6.53
2022-08-18T00:38:24.231Z,4.35
2022-08-18T00:40:56.162Z,4.60
2022-08-18T00:43:36.019Z,4.60
2022-08-18T00:46:09.139Z,8.93
2022-08-18T00:48:36.212Z,5.68
2022-08-18T00:51:14.129Z,5.50
2022-08-18T00:53:58.381Z,9.68
2022-08-18T00:56:35.493Z,5.35
2022-08-18T00:59:17.461Z,6.50
2022-08-18T01:01:48.712Z,5.18
2022-08-18T01:04:36.542Z,5.85
2022-08-18T01:07:20.419Z,4.60
2022-08-18T01:09:51.825Z,4.28
2022-08-18T01:12:44.877Z,4.93
2022-08-18T01:15:07.913Z,5.10
2022-08-18T01:18:19.460Z,4.88
2022-08-18T01:21:32.861Z,5.20
2022-08-18T01:24:05.537Z,5.47
2022-08-18T01:26:44.291Z,5.57
2022-08-18T01:29:18.842Z,5.65
2022-08-18T01:31:55.654Z,6.78
2022-08-18T01:34:26.060Z,5.72
2022-08-18T01:36:54.930Z,5.20
2022-08-18T01:41:20.957Z,5.72
2022-08-18T01:42:10.078Z,7.45
2022-08-18T01:44:37.675Z,7.00
2022-08-18T01:47:04.581Z,5.53
2022-08-18T01:49:31.525Z,5.32
2022-08-18T01:51:58.372Z,4.88
2022-08-18T01:54:29.937Z,7.68
2022-08-18T01:56:56.965Z,5.35
2022-08-18T01:59:23.939Z,5.88
2022-08-18T02:01:54.043Z,5.28
2022-08-18T02:04:36.665Z,5.18
2022-08-18T02:07:09.656Z,5.05
2022-08-18T02:09:39.416Z,5.03
2022-08-18T02:12:07.943Z,5.43
2022-08-18T02:14:37.066Z,6.00
2022-08-18T02:17:07.861Z,4.75
2022-08-18T02:19:43.376Z,6.05
2022-08-18T02:22:15.137Z,5.50
2022-08-18T02:24:43.054Z,6.18
2022-08-18T02:27:12.460Z,5.78
2022-08-18T02:29:39.932Z,5.72
2022-08-18T02:32:08.680Z,6.15
2022-08-18T02:34:36.863Z,5.20
2022-08-18T02:37:04.287Z,5.72
2022-08-18T02:39:34.845Z,5.47
2022-08-18T02:42:01.860Z,5.25
2022-08-18T02:44:29.705Z,5.78
2022-08-18T02:46:56.665Z,5.55
2022-08-18T02:49:25.103Z,5.95
2022-08-18T02:51:53.888Z,9.88
2022-08-18T02:54:23.822Z,7.20
2022-08-18T02:56:53.110Z,7.40
2022-08-18T02:59:24.451Z,5.68
2022-08-18T03:01:55.676Z,6.97
2022-08-18T03:04:29.455Z,5.75
2022-08-18T03:07:01.364Z,5.53
2022-08-18T03:09:30.317Z,7.18
2022-08-18T03:11:58.788Z,5.65
2022-08-18T03:14:26.042Z,5.82
2022-08-18T03:16:55.212Z,5.25
2022-08-18T03:19:28.521Z,5.13
2022-08-18T03:22:02.468Z,7.07
2022-08-18T03:24:32.129Z,6.47
2022-08-18T03:27:01.530Z,5.20
2022-08-18T03:29:32.459Z,5.32
2022-08-18T03:32:02.135Z,5.30
2022-08-18T03:34:29.842Z,6.07
2022-08-18T03:36:56.869Z,5.70
2022-08-18T03:39:25.018Z,6.40
2022-08-18T03:41:58.274Z,6.53
2022-08-18T03:44:31.735Z,5.68
2022-08-18T03:46:59.312Z,4.90
2022-08-18T03:49:27.178Z,8.00
2022-08-18T03:51:54.495Z,7.70
2022-08-18T03:54:21.980Z,6.10
2022-08-18T03:56:49.619Z,5.60
2022-08-18T03:59:22.403Z,8.05
2022-08-18T04:01:53.946Z,6.10
2022-08-18T04:04:27.570Z,6.82
2022-08-18T04:06:58.869Z,6.88
2022-08-18T04:09:29.907Z,8.73
2022-08-18T04:12:02.740Z,6.85
2022-08-18T04:14:32.644Z,5.82
2022-08-18T04:17:00.286Z,7.35
2022-08-18T04:19:27.983Z,7.57
2022-08-18T04:21:58.076Z,7.43
2022-08-18T04:24:28.178Z,6.32
2022-08-18T04:26:58.168Z,5.95
2022-08-18T04:29:25.266Z,6.47
2022-08-18T04:31:52.727Z,5.40
2022-08-18T04:34:22.740Z,5.25
2022-08-18T04:36:54.077Z,6.60
2022-08-18T04:39:22.803Z,7.88
2022-08-18T04:41:50.718Z,7.63
2022-08-18T04:44:18.625Z,11.02
2022-08-18T04:46:51.880Z,7.90
2022-08-18T04:49:25.746Z,8.35
2022-08-18T04:52:36.099Z,11.05
2022-08-18T04:55:01.440Z,6.38
2022-08-18T04:57:33.584Z,7.45
2022-08-18T05:00:03.982Z,6.82
2022-08-18T05:02:32.008Z,6.45
2022-08-18T05:04:58.967Z,7.00
2022-08-18T05:07:26.402Z,6.57
2022-08-18T05:09:55.085Z,5.70
2022-08-18T05:12:25.171Z,6.22
2022-08-18T05:14:56.792Z,6.43
2022-08-18T05:17:28.755Z,8.98
2022-08-18T05:19:57.524Z,12.07
2022-08-18T05:22:28.653Z,11.80
2022-08-18T05:24:58.431Z,6.30
2022-08-18T05:27:25.439Z,7.47
2022-08-18T05:29:52.323Z,7.07
2022-08-18T05:32:38.274Z,7.03
2022-08-18T05:35:18.285Z,6.22
2022-08-18T05:38:05.862Z,5.80
2022-08-18T05:40:34.832Z,5.93
2022-08-18T05:45:44.038Z,9.10
2022-08-18T05:48:10.921Z,5.93
2022-08-18T05:50:38.157Z,5.88
2022-08-18T05:53:14.572Z,7.55
2022-08-18T05:56:21.843Z,5.50
2022-08-18T05:58:55.662Z,8.25
2022-08-18T06:01:30.209Z,6.88
2022-08-18T06:04:38.965Z,10.05
2022-08-18T06:07:14.835Z,5.85
2022-08-18T06:09:51.064Z,6.70
2022-08-18T06:12:47.247Z,7.63
2022-08-18T06:15:24.164Z,6.90
2022-08-18T06:18:08.811Z,10.15
2022-08-18T06:21:14.205Z,7.72
2022-08-18T06:24:27.793Z,5.85
2022-08-18T06:27:45.224Z,7.30
2022-08-18T06:30:32.658Z,6.82
2022-08-18T06:33:34.965Z,7.35
2022-08-18T06:36:38.967Z,7.30
2022-08-18T06:39:44.137Z,7.10
2022-08-18T06:42:11.149Z,5.88
2022-08-18T06:44:48.912Z,7.35
2022-08-18T06:47:36.729Z,8.10
2022-08-18T06:50:48.802Z,6.78
2022-08-18T06:53:26.875Z,7.80
2022-08-18T06:55:55.071Z,6.00
2022-08-18T06:58:30.361Z,8.10
2022-08-18T07:01:05.026Z,10.43
2022-08-18T07:03:52.722Z,9.27
2022-08-18T07:06:22.358Z,6.93
2022-08-18T07:08:52.353Z,7.80
2022-08-18T07:11:33.376Z,6.22
2022-08-18T07:14:22.032Z,6.63
2022-08-18T07:16:59.262Z,7.40
2022-08-18T07:19:31.573Z,7.60
2022-08-18T07:22:39.095Z,8.27
2022-08-18T07:25:07.282Z,6.90
2022-08-18T07:27:47.931Z,9.20
2022-08-18T07:30:19.170Z,6.00
2022-08-18T07:32:55.332Z,7.22
2022-08-18T07:35:39.402Z,5.57
2022-08-18T07:41:32.095Z,8.65
2022-08-18T07:44:16.406Z,7.72
2022-08-18T07:47:00.583Z,6.55
2022-08-18T07:49:35.636Z,6.82
2022-08-18T07:52:43.847Z,8.85
2022-08-18T07:55:24.584Z,8.13
2022-08-18T07:58:24.627Z,10.23
2022-08-18T08:01:18.426Z,6.60
2022-08-18T08:04:11.509Z,7.53
2022-08-18T08:07:40.296Z,5.75
2022-08-18T08:10:40.385Z,8.23
2022-08-18T08:13:56.815Z,6.75
2022-08-18T08:16:47.262Z,6.00
2022-08-18T08:19:59.019Z,7.47
2022-08-18T08:22:37.323Z,6.53
2022-08-18T08:25:46.741Z,7.53
2022-08-18T08:29:08.686Z,8.18
2022-08-18T08:32:00.259Z,5.88
2022-08-18T08:35:47.185Z,7.75
2022-08-18T08:39:09.809Z,6.63
2022-08-18T08:46:11.960Z,11.35
2022-08-18T08:49:01.182Z,8.23
2022-08-18T08:51:48.821Z,5.90
2022-08-18T08:54:29.491Z,6.28
2022-08-18T08:57:01.397Z,11.57
2022-08-18T08:59:28.326Z,9.60
2022-08-18T09:02:08.720Z,10.52
2022-08-18T09:05:08.571Z,7.65
2022-08-18T09:08:16.292Z,6.13
2022-08-18T09:11:09.056Z,6.65
2022-08-18T09:13:59.120Z,7.25
2022-08-18T09:16:44.606Z,7.28
2022-08-18T09:19:21.669Z,5.88
2022-08-18T09:22:14.406Z,7.80
2022-08-18T09:24:54.353Z,6.80
2022-08-18T09:28:09.330Z,5.90
2022-08-18T09:31:08.955Z,6.95
2022-08-18T09:33:45.621Z,5.95
2022-08-18T09:36:38.827Z,7.03
2022-08-18T09:39:48.052Z,9.00
2022-08-18T09:42:48.531Z,5.20
2022-08-18T09:45:52.938Z,5.65
2022-08-18T09:48:32.351Z,5.65
2022-08-18T09:51:31.456Z,7.75
2022-08-18T09:54:31.144Z,5.57
2022-08-18T09:57:19.633Z,9.30
2022-08-18T09:59:50.423Z,7.60
2022-08-18T10:02:29.170Z,5.90
2022-08-18T10:05:15.322Z,5.13
2022-08-18T10:07:56.778Z,6.55
2022-08-18T10:14:19.751Z,8.10
2022-08-18T10:17:21.751Z,7.72
2022-08-18T10:20:09.055Z,6.45
2022-08-18T10:22:54.795Z,6.13
2022-08-18T10:25:42.667Z,8.77
2022-08-18T10:28:52.100Z,8.18
2022-08-18T10:31:19.273Z,5.95
2022-08-18T10:34:19.248Z,6.72
2022-08-18T10:36:59.103Z,8.10
2022-08-18T10:39:41.303Z,6.40
2022-08-18T10:42:49.542Z,6.28
2022-08-18T10:45:32.420Z,6.15
2022-08-18T10:48:24.432Z,6.28
2022-08-18T10:51:15.360Z,9.48
2022-08-18T10:54:12.128Z,5.68
2022-08-18T10:57:05.895Z,5.88
2022-08-18T10:59:58.704Z,8.40
2022-08-18T11:02:46.073Z,11.43
2022-08-18T11:05:24.381Z,12.88
2022-08-18T11:08:00.747Z,7.43
2022-08-18T11:11:06.629Z,7.72
2022-08-18T11:14:51.084Z,7.60
2022-08-18T11:17:50.257Z,9.88
2022-08-18T11:20:21.314Z,10.70
2022-08-18T11:23:01.550Z,6.40
2022-08-18T11:25:37.090Z,8.80
2022-08-18T11:28:30.261Z,10.80
2022-08-18T11:30:59.794Z,8.45
2022-08-18T11:33:27.716Z,9.98
2022-08-18T11:35:59.363Z,8.35
2022-08-18T11:38:31.209Z,9.30
2022-08-18T11:41:47.909Z,8.65
2022-08-18T11:44:31.790Z,7.90
2022-08-18T11:47:14.365Z,8.52
2022-08-18T11:49:57.115Z,7.53
2022-08-18T11:52:34.616Z,8.27
2022-08-18T11:55:24.488Z,9.30
2022-08-18T11:57:59.372Z,8.15
2022-08-18T12:00:42.735Z,12.45
2022-08-18T12:03:39.261Z,9.83
2022-08-18T12:06:21.619Z,8.02
2022-08-18T12:09:36.949Z,7.70
2022-08-18T12:12:24.668Z,6.18
2022-08-18T12:15:10.372Z,6.70
2022-08-18T12:17:52.346Z,8.23
2022-08-18T12:20:21.929Z,8.25
2022-08-18T12:22:51.409Z,8.55
2022-08-18T12:25:24.810Z,6.90
2022-08-18T12:27:53.859Z,9.15
2022-08-18T12:30:21.070Z,6.90
2022-08-18T12:32:50.731Z,7.35
2022-08-18T12:35:23.435Z,6.45
2022-08-18T12:38:11.394Z,8.25
2022-08-18T12:40:39.982Z,6.90
2022-08-18T12:43:07.146Z,7.32
2022-08-18T12:45:34.657Z,14.18
2022-08-18T12:48:04.778Z,6.60
2022-08-18T12:50:39.432Z,10.40
2022-08-18T12:56:19.681Z,8.15
2022-08-18T12:58:47.616Z,7.78
2022-08-18T13:01:17.415Z,7.97
2022-08-18T13:03:52.628Z,10.00
2022-08-18T13:06:40.699Z,8.35
2022-08-18T13:09:16.184Z,5.07
2022-08-18T13:11:43.669Z,6.20
2022-08-18T13:14:10.709Z,10.90
2022-08-18T13:16:53.959Z,5.82
2022-08-18T13:19:21.836Z,7.53
2022-08-18T13:21:49.660Z,9.38
2022-08-18T13:24:16.782Z,8.60
2022-08-18T13:26:49.764Z,6.63
2022-08-18T13:29:19.358Z,8.25
2022-08-18T13:31:55.499Z,9.40
2022-08-18T13:34:30.113Z,12.13
2022-08-18T13:36:57.588Z,11.32
2022-08-18T13:39:25.587Z,9.77
2022-08-18T13:42:21.658Z,9.13
2022-08-18T13:44:52.838Z,6.57
2022-08-18T13:47:22.257Z,11.18
2022-08-18T13:49:58.042Z,8.18
2022-08-18T13:52:34.733Z,9.00
2022-08-18T13:55:08.025Z,9.18
2022-08-18T13:57:37.472Z,7.03
2022-08-18T14:00:12.142Z,6.47
2022-08-18T14:02:55.409Z,9.50
2022-08-18T14:05:36.995Z,9.50
2022-08-18T14:08:11.039Z,7.18
2022-08-18T14:10:50.734Z,6.78
2022-08-18T14:13:20.949Z,8.52
2022-08-18T14:15:56.232Z,10.18
2022-08-18T14:18:30.757Z,10.93
2022-08-18T14:21:23.209Z,10.52
2022-08-18T14:24:10.287Z,8.07
2022-08-18T14:26:51.092Z,10.15
2022-08-18T14:29:45.583Z,9.10
2022-08-18T14:32:07.272Z,11.18
2022-08-18T14:34:34.562Z,12.30
2022-08-18T14:37:03.211Z,12.07
2022-08-18T14:39:30.387Z,9.48
2022-08-18T14:41:58.514Z,7.75
2022-08-18T14:44:31.886Z,7.53
2022-08-18T14:46:59.868Z,10.18
2022-08-18T14:49:28.670Z,9.27
2022-08-18T14:52:00.715Z,10.93
2022-08-18T14:54:30.116Z,7.28
2022-08-18T14:57:01.711Z,10.40
2022-08-18T14:59:30.879Z,9.73
2022-08-18T15:02:01.601Z,9.20
2022-08-18T15:04:28.835Z,7.22
2022-08-18T15:06:57.575Z,7.15
2022-08-18T15:09:30.104Z,8.75
2022-08-18T15:11:59.620Z,6.72
2022-08-18T15:14:33.157Z,10.23
2022-08-18T15:17:03.898Z,11.55
2022-08-18T15:20:00.468Z,7.95
2022-08-18T15:22:45.884Z,9.00
2022-08-18T15:25:34.166Z,9.45
2022-08-18T15:28:01.596Z,9.30
2022-08-18T15:30:29.183Z,9.40
2022-08-18T15:32:58.965Z,11.00
2022-08-18T15:35:26.159Z,10.23
2022-08-18T15:37:54.699Z,8.32
2022-08-18T15:40:35.737Z,7.60
2022-08-18T15:43:09.563Z,11.40
2022-08-18T15:45:43.297Z,8.10
2022-08-18T15:48:26.260Z,9.02
2022-08-18T15:50:53.627Z,8.63
2022-08-18T15:53:29.942Z,9.77
2022-08-18T15:55:57.883Z,15.80
2022-08-18T15:58:26.918Z,9.98
2022-08-18T16:00:55.505Z,12.45
2022-08-18T16:03:22.502Z,11.25
2022-08-18T16:05:54.311Z,9.85
2022-08-18T16:08:25.275Z,8.07
2022-08-18T16:10:53.534Z,10.82
2022-08-18T16:13:21.672Z,7.80
2022-08-18T16:15:50.172Z,7.00
2022-08-18T16:18:21.067Z,7.60
2022-08-18T16:20:48.830Z,8.52
2022-08-18T16:23:19.873Z,9.43
2022-08-18T16:25:46.688Z,9.93
2022-08-18T16:28:13.569Z,8.15
2022-08-18T16:30:41.018Z,7.53
2022-08-18T16:33:08.563Z,17.85
2022-08-18T16:35:37.322Z,8.18
2022-08-18T16:38:09.095Z,7.28
2022-08-18T16:40:37.673Z,7.40
2022-08-18T16:43:07.121Z,11.38
2022-08-18T16:45:37.493Z,8.45
2022-08-18T16:48:07.281Z,9.65
2022-08-18T16:50:37.693Z,7.40
2022-08-18T16:53:05.496Z,9.65
2022-08-18T16:55:32.510Z,9.68
2022-08-18T16:58:17.689Z,8.88
2022-08-18T17:05:27.138Z,7.88
2022-08-18T17:08:16.912Z,9.80
2022-08-18T17:10:44.191Z,9.18
2022-08-18T17:13:11.256Z,14.30
2022-08-18T17:15:38.256Z,8.60
2022-08-18T17:18:05.204Z,11.32
2022-08-18T17:20:35.701Z,10.27
2022-08-18T17:23:03.244Z,9.27
2022-08-18T17:25:30.237Z,11.77
2022-08-18T17:28:00.678Z,10.07
2022-08-18T17:30:39.480Z,8.20
2022-08-18T17:33:15.196Z,10.43
2022-08-18T17:35:46.447Z,8.00
2022-08-18T17:38:29.729Z,9.98
2022-08-18T17:41:04.680Z,9.93
2022-08-18T17:46:29.764Z,7.57
2022-08-18T17:49:04.776Z,9.73
2022-08-18T17:51:43.490Z,10.30
2022-08-18T17:54:38.214Z,9.63
2022-08-18T17:57:14.668Z,7.15
2022-08-18T17:59:51.618Z,8.45
2022-08-18T18:02:29.611Z,8.75
2022-08-18T18:05:05.408Z,8.25
2022-08-18T18:07:50.349Z,9.77
2022-08-18T18:11:02.291Z,7.82
2022-08-18T18:13:32.349Z,7.88
2022-08-18T18:16:27.721Z,7.40
2022-08-18T18:19:02.733Z,8.00
2022-08-18T18:22:00.090Z,7.85
2022-08-18T18:24:32.154Z,7.15
2022-08-18T18:26:59.161Z,7.57
2022-08-18T18:29:37.780Z,8.38
2022-08-18T18:32:27.916Z,8.70
2022-08-18T18:35:27.829Z,7.82
2022-08-18T18:38:06.616Z,11.23
2022-08-18T18:40:56.666Z,8.88
2022-08-18T18:43:35.774Z,8.52
2022-08-18T18:46:30.980Z,8.07
2022-08-18T18:49:44.821Z,8.93
2022-08-18T18:52:27.911Z,10.98
2022-08-18T18:55:02.565Z,8.55
2022-08-18T18:57:50.246Z,8.55
2022-08-18T19:00:41.601Z,9.35
2022-08-18T19:03:22.786Z,9.65
2022-08-18T19:06:38.018Z,10.88
2022-08-18T19:09:14.469Z,11.15
2022-08-18T19:12:24.410Z,15.23
2022-08-18T19:15:00.208Z,11.65
2022-08-18T19:17:45.185Z,13.48
2022-08-18T19:22:54.750Z,12.40
2022-08-18T19:25:30.894Z,11.02
2022-08-18T19:28:24.779Z,9.45
2022-08-18T19:30:56.660Z,14.90
2022-08-18T19:33:47.970Z,12.13
2022-08-18T19:36:44.159Z,10.40
2022-08-18T19:39:17.755Z,12.25
2022-08-18T19:42:26.481Z,11.40
2022-08-18T19:45:30.838Z,11.63
2022-08-18T19:48:17.697Z,13.32
2022-08-18T19:51:05.477Z,10.20
2022-08-18T19:54:10.738Z,9.00
2022-08-18T19:57:11.290Z,12.90
2022-08-18T20:00:12.158Z,10.55
2022-08-18T20:03:37.369Z,9.93
2022-08-18T20:06:35.961Z,13.52
2022-08-18T20:09:31.518Z,10.40
2022-08-18T20:12:45.272Z,13.85
2022-08-18T20:15:23.634Z,10.77
2022-08-18T20:17:53.501Z,13.02
2022-08-18T20:20:23.473Z,9.85
2022-08-18T20:22:57.321Z,9.93
2022-08-18T20:25:24.408Z,10.45
2022-08-18T20:27:59.263Z,11.25
2022-08-18T20:30:51.619Z,11.80
2022-08-18T20:33:25.768Z,10.35
2022-08-18T20:38:48.610Z,11.52
2022-08-18T20:41:39.086Z,11.68
2022-08-18T20:44:36.586Z,11.05
2022-08-18T20:47:42.575Z,11.77
2022-08-18T20:50:46.671Z,13.90
2022-08-18T20:53:57.865Z,16.27
2022-08-18T20:56:43.300Z,11.57
2022-08-18T20:59:21.010Z,10.30
2022-08-18T21:02:08.513Z,11.93
2022-08-18T21:04:58.966Z,13.30
2022-08-18T21:07:38.917Z,11.60
2022-08-18T21:10:22.586Z,10.85
2022-08-18T21:12:57.770Z,10.88
2022-08-18T21:15:36.987Z,10.55
2022-08-18T21:18:20.319Z,14.13
2022-08-18T21:20:50.059Z,13.93
2022-08-18T21:23:33.738Z,11.38
2022-08-18T21:26:11.223Z,14.68
2022-08-18T21:28:44.876Z,10.60
2022-08-18T21:31:45.507Z,11.27
2022-08-18T21:34:35.484Z,12.73
2022-08-18T21:37:08.325Z,10.15
2022-08-18T21:39:51.176Z,12.40
2022-08-18T21:42:44.797Z,12.02
2022-08-18T21:45:21.491Z,10.55
2022-08-18T21:47:54.617Z,10.93
2022-08-18T21:50:30.003Z,10.60
2022-08-18T21:53:00.493Z,14.90
2022-08-18T21:55:41.719Z,11.55
2022-08-18T21:58:16.633Z,13.40
2022-08-18T22:01:05.501Z,12.07
2022-08-18T22:03:34.450Z,12.63
2022-08-18T22:06:16.934Z,10.77
2022-08-18T22:09:28.799Z,9.90
2022-08-18T22:12:52.414Z,11.32
2022-08-18T22:15:40.410Z,10.18
2022-08-18T22:18:35.492Z,10.90
2022-08-18T22:24:04.720Z,9.98
2022-08-18T22:26:38.786Z,10.43
2022-08-18T22:29:32.462Z,11.43
2022-08-18T22:32:01.663Z,11.52
2022-08-18T22:34:32.902Z,10.50
2022-08-18T22:37:07.673Z,10.52
2022-08-18T22:39:41.645Z,11.57
2022-08-18T22:42:10.128Z,13.07
2022-08-18T22:44:38.289Z,13.15
2022-08-18T22:47:06.742Z,11.32
2022-08-18T22:49:36.934Z,14.90
2022-08-18T22:52:18.965Z,12.60
2022-08-18T22:54:46.499Z,12.27
2022-08-18T22:57:17.505Z,11.90
2022-08-18T22:59:46.821Z,12.57
2022-08-18T23:02:16.283Z,13.90
2022-08-18T23:04:49.733Z,13.93
2022-08-18T23:07:22.437Z,13.23
2022-08-18T23:09:49.442Z,16.08
2022-08-18T23:12:17.400Z,15.25
2022-08-18T23:14:46.484Z,12.75
2022-08-18T23:17:14.112Z,12.00
2022-08-18T23:19:42.693Z,11.65
2022-08-18T23:22:10.734Z,12.27
2022-08-18T23:24:38.309Z,17.00
2022-08-18T23:27:06.184Z,13.68
2022-08-18T23:29:37.561Z,12.10
2022-08-18T23:32:05.768Z,13.32
2022-08-18T23:34:38.927Z,14.88
2022-08-18T23:37:09.501Z,14.25
2022-08-18T23:39:39.356Z,12.57
2022-08-18T23:42:13.043Z,13.20
2022-08-18T23:44:40.497Z,12.02
2022-08-18T23:47:07.753Z,12.50
2022-08-18T23:49:37.254Z,13.05
2022-08-18T23:52:05.616Z,11.73
2022-08-18T23:54:35.312Z,12.27
2022-08-18T23:57:02.542Z,11.25
2022-08-18T23:59:31.938Z,11.20
